Time;durP1;ratioP1;P1;durP2;ratioP2;P2;SDS_P1;SDS_P2;PMS_P1;PMS_P2;Temp;Humidity;BMP_temperature;BMP_pressure;BME280_temperature;BME280_humidity;BME280_pressure;Samples;Min_cycle;Max_cycle;Signal;HPM_P1;HPM_P2
2023/12/12 00:00:24;;;;;;;24.65;16.02;;;;;;;2.53;73.11;99178.66;6229424;23;20012;-92
2023/12/12 00:02:50;;;;;;;22.80;15.98;;;;;;;2.43;73.62;99154.41;6207909;23;19999;-91
2023/12/12 00:05:16;;;;;;;25.48;16.35;;;;;;;2.47;73.36;99160.91;6206711;23;20031;-91
2023/12/12 00:07:43;;;;;;;27.23;16.95;;;;;;;2.65;74.10;99194.66;6207755;23;20382;-92
2023/12/12 00:10:09;;;;;;;30.83;16.75;;;;;;;2.44;73.94;99177.28;6181130;23;20350;-91
2023/12/12 00:12:34;;;;;;;27.30;17.75;;;;;;;2.40;74.46;99174.25;6232392;23;19996;-92
2023/12/12 00:15:00;;;;;;;30.00;17.63;;;;;;;2.46;74.79;99185.06;6179817;23;20004;-91
2023/12/12 00:17:25;;;;;;;29.00;17.92;;;;;;;2.40;74.02;99192.03;6179224;23;19996;-91
2023/12/12 00:19:51;;;;;;;30.00;18.13;;;;;;;2.48;74.28;99209.56;6174341;23;20004;-92
2023/12/12 00:22:17;;;;;;;30.67;17.70;;;;;;;2.42;74.09;99203.28;6178139;23;20087;-91
2023/12/12 00:24:42;;;;;;;29.77;17.92;;;;;;;2.40;74.35;99219.41;6178986;23;20023;-92
2023/12/12 00:27:10;;;;;;;33.42;17.38;;;;;;;2.15;74.13;99200.03;6205025;23;19980;-91
2023/12/12 00:29:36;;;;;;;26.25;16.73;;;;;;;2.14;74.45;99214.38;6206088;23;20023;-92
2023/12/12 00:32:02;;;;;;;24.33;16.27;;;;;;;2.01;74.71;99209.94;6180596;23;20003;-92
2023/12/12 00:34:28;;;;;;;22.17;14.52;;;;;;;2.12;74.89;99224.41;6180206;23;20083;-93
2023/12/12 00:36:54;;;;;;;22.77;15.10;;;;;;;2.04;74.57;99198.91;6255089;23;20006;-92
2023/12/12 00:39:19;;;;;;;27.63;16.17;;;;;;;2.13;74.02;99194.13;6204319;23;20323;-92
2023/12/12 00:41:45;;;;;;;27.88;16.40;;;;;;;2.04;74.23;99176.88;6205408;23;20327;-91
2023/12/12 00:44:11;;;;;;;29.40;17.20;;;;;;;1.95;75.34;99181.63;6204836;23;20066;-92
2023/12/12 00:46:36;;;;;;;27.40;16.63;;;;;;;1.81;75.19;99179.06;6179894;23;20010;-93
2023/12/12 00:49:02;;;;;;;27.17;17.23;;;;;;;1.80;75.33;99174.78;6205996;23;20003;-92
2023/12/12 00:51:28;;;;;;;29.33;17.45;;;;;;;2.00;74.83;99193.22;6179670;23;20527;-92
2023/12/12 00:53:53;;;;;;;24.50;16.23;;;;;;;2.09;74.63;99187.63;6180798;23;20007;-92
2023/12/12 00:56:19;;;;;;;27.80;16.00;;;;;;;2.17;74.02;99182.03;6179357;23;20084;-92
2023/12/12 00:58:45;;;;;;;27.55;16.75;;;;;;;2.22;73.93;99182.19;6228829;22;20377;-93
2023/12/12 01:01:13;;;;;;;25.23;15.90;;;;;;;2.18;74.04;99200.44;6235133;22;20014;-92
2023/12/12 01:03:40;;;;;;;27.20;16.25;;;;;;;1.93;74.92;99194.28;6213459;22;20006;-92
2023/12/12 01:06:06;;;;;;;28.42;16.80;;;;;;;1.94;74.97;99198.59;6211084;22;20004;-91
2023/12/12 01:08:34;;;;;;;30.38;16.85;;;;;;;2.08;74.77;99216.03;6212253;22;20004;-91
2023/12/12 01:11:01;;;;;;;26.85;17.48;;;;;;;2.10;74.94;99207.88;6234083;22;20003;-91
2023/12/12 01:13:27;;;;;;;27.90;16.80;;;;;;;2.21;74.34;99201.84;6256199;22;20069;-92
2023/12/12 01:15:52;;;;;;;26.38;14.70;;;;;;;2.31;73.61;99193.38;6203198;22;20086;-92
2023/12/12 01:18:18;;;;;;;25.92;16.27;;;;;;;1.97;74.34;99167.13;6234014;22;20000;-91
2023/12/12 01:20:44;;;;;;;30.50;17.02;;;;;;;2.13;74.68;99191.47;6233824;22;19999;-92
2023/12/12 01:23:12;;;;;;;26.88;16.83;;;;;;;2.16;74.74;99177.78;6207854;22;20017;-92
2023/12/12 01:25:37;;;;;;;25.88;16.02;;;;;;;2.34;74.08;99191.06;6233216;22;20354;-92
2023/12/12 01:28:03;;;;;;;30.30;17.02;;;;;;;2.33;73.86;99172.72;6232949;22;20017;-92
2023/12/12 01:30:29;;;;;;;25.33;15.88;;;;;;;2.46;73.68;99164.59;6203895;22;20069;-92
2023/12/12 01:32:55;;;;;;;26.67;16.40;;;;;;;2.45;73.59;99149.69;6205666;22;20008;-92
2023/12/12 01:35:20;;;;;;;32.40;16.38;;;;;;;2.60;73.13;99165.28;6205676;22;20008;-92
2023/12/12 01:37:46;;;;;;;34.67;18.63;;;;;;;2.59;73.37;99153.00;6205446;22;20002;-92
2023/12/12 01:40:12;;;;;;;29.23;17.23;;;;;;;2.55;73.32;99157.13;6206171;22;20007;-91
2023/12/12 01:42:37;;;;;;;25.20;16.90;;;;;;;2.55;73.74;99157.97;6231426;22;20022;-92
2023/12/12 01:45:03;;;;;;;28.63;16.63;;;;;;;2.58;73.97;99162.03;6206663;22;19996;-92
2023/12/12 01:47:31;;;;;;;29.00;16.95;;;;;;;2.67;73.45;99159.88;6203578;22;20061;-92
2023/12/12 01:49:57;;;;;;;25.30;16.52;;;;;;;2.67;73.00;99167.84;6228167;22;20007;-92
2023/12/12 01:52:25;;;;;;;25.55;16.60;;;;;;;2.97;72.94;99194.50;6233436;22;20418;-92
2023/12/12 01:54:51;;;;;;;22.90;14.88;;;;;;;2.69;72.93;99142.66;6233647;22;20014;-92
2023/12/12 01:57:17;;;;;;;26.33;16.35;;;;;;;2.85;73.22;99156.41;6229913;22;20075;-91
2023/12/12 01:59:46;;;;;;;28.95;17.73;;;;;;;2.80;73.61;99159.72;6227250;22;20089;-91
2023/12/12 02:02:12;;;;;;;25.52;17.10;;;;;;;2.57;73.70;99136.47;6202780;22;20037;-91
2023/12/12 02:04:38;;;;;;;28.38;18.05;;;;;;;2.60;73.57;99142.16;6228175;22;19996;-91
2023/12/12 02:07:04;;;;;;;28.60;16.48;;;;;;;2.77;73.78;99158.31;6227613;22;20307;-91
2023/12/12 02:09:30;;;;;;;25.73;16.35;;;;;;;2.87;73.29;99163.13;6201892;22;20065;-91
2023/12/12 02:11:56;;;;;;;26.25;16.30;;;;;;;2.84;73.02;99142.28;6226831;22;20005;-91
2023/12/12 02:14:21;;;;;;;28.13;16.00;;;;;;;2.86;73.19;99150.03;6202578;22;20072;-91
2023/12/12 02:16:47;;;;;;;22.85;14.70;;;;;;;2.96;73.23;99160.97;6202805;22;20054;-91
2023/12/12 02:19:16;;;;;;;24.17;13.45;;;;;;;3.03;72.80;99159.84;6201669;22;19995;-92
2023/12/12 02:21:41;;;;;;;24.25;14.68;;;;;;;2.95;73.12;99138.88;6202407;22;20003;-91
2023/12/12 02:24:07;;;;;;;25.83;16.05;;;;;;;3.09;73.42;99167.94;6202669;22;20336;-91
2023/12/12 02:26:32;;;;;;;30.98;16.75;;;;;;;2.95;73.55;99170.00;6201862;22;20387;-91
2023/12/12 02:28:58;;;;;;;24.60;16.38;;;;;;;2.82;73.43;99160.31;6202681;22;20087;-91
2023/12/12 02:31:27;;;;;;;26.67;16.35;;;;;;;2.75;73.57;99143.63;6203260;22;19999;-92
2023/12/12 02:33:52;;;;;;;29.73;16.27;;;;;;;2.73;73.46;99151.81;6202792;22;20426;-91
2023/12/12 02:36:20;;;;;;;24.02;15.82;;;;;;;2.99;72.56;99174.63;6203487;22;20004;-92
2023/12/12 02:38:46;;;;;;;22.00;15.20;;;;;;;2.88;72.72;99162.06;6204702;22;20078;-92
2023/12/12 02:41:12;;;;;;;25.52;15.38;;;;;;;2.94;72.73;99186.97;6201399;22;20000;-91
2023/12/12 02:43:37;;;;;;;23.83;15.63;;;;;;;2.96;72.95;99196.34;6202105;22;20007;-92
2023/12/12 02:46:04;;;;;;;22.88;14.30;;;;;;;3.14;72.83;99205.34;6227154;22;20418;-91
2023/12/12 02:48:29;;;;;;;21.25;13.68;;;;;;;3.13;73.05;99193.06;6202200;22;20003;-91
2023/12/12 02:50:55;;;;;;;26.42;14.68;;;;;;;3.39;72.44;99211.34;6202836;22;20022;-92
2023/12/12 02:53:21;;;;;;;20.52;12.35;;;;;;;3.39;73.21;99198.03;6203500;22;20468;-93
2023/12/12 02:55:46;;;;;;;20.77;14.07;;;;;;;3.12;73.76;99194.94;6202152;22;20349;-92
2023/12/12 02:58:12;;;;;;;25.75;15.43;;;;;;;3.03;73.24;99213.03;6201318;22;19999;-92
2023/12/12 03:00:38;;;;;;;21.10;14.45;;;;;;;2.91;74.39;99198.88;6196768;23;20055;-93
2023/12/12 03:03:04;;;;;;;24.45;14.55;;;;;;;2.82;74.76;99193.03;6222578;23;20000;-92
2023/12/12 03:05:30;;;;;;;25.35;15.13;;;;;;;2.74;74.37;99188.03;6246532;23;20084;-92
2023/12/12 03:07:56;;;;;;;23.80;15.13;;;;;;;2.91;74.75;99204.19;6196991;23;20034;-92
2023/12/12 03:10:22;;;;;;;25.35;16.15;;;;;;;2.85;74.81;99172.38;6247806;23;20426;-92
2023/12/12 03:12:47;;;;;;;26.38;14.15;;;;;;;3.09;74.16;99207.84;6196216;23;20011;-93
2023/12/12 03:15:13;;;;;;;25.38;15.43;;;;;;;2.78;75.27;99177.72;6197337;23;20083;-92
2023/12/12 03:17:38;;;;;;;25.95;15.10;;;;;;;2.87;74.93;99205.66;6172880;23;20095;-92
2023/12/12 03:20:07;;;;;;;25.20;15.32;;;;;;;2.97;75.01;99187.34;6198471;23;20454;-92
2023/12/12 03:22:32;;;;;;;23.98;15.27;;;;;;;3.04;74.47;99190.72;6198387;23;20083;-92
2023/12/12 03:24:58;;;;;;;27.48;14.90;;;;;;;3.19;74.46;99200.97;6173952;23;20422;-92
2023/12/12 03:27:24;;;;;;;20.83;13.70;;;;;;;3.07;73.91;99172.69;6174060;23;20446;-93
2023/12/12 03:29:49;;;;;;;23.67;14.40;;;;;;;3.17;74.42;99179.09;6174443;23;20032;-92
2023/12/12 03:32:15;;;;;;;26.20;14.25;;;;;;;3.19;73.94;99177.00;6197940;23;20007;-92
2023/12/12 03:34:40;;;;;;;23.67;14.35;;;;;;;3.14;73.91;99168.09;6173897;23;20027;-92
2023/12/12 03:37:06;;;;;;;23.27;14.30;;;;;;;3.20;74.43;99181.31;6172919;23;20116;-92
2023/12/12 03:39:31;;;;;;;21.10;14.52;;;;;;;3.07;75.08;99162.84;6173508;23;20010;-92
2023/12/12 03:41:57;;;;;;;23.90;14.50;;;;;;;3.07;75.74;99170.84;6223636;23;20335;-92
2023/12/12 03:44:23;;;;;;;25.63;13.68;;;;;;;3.14;75.23;99168.09;6197891;23;20000;-92
2023/12/12 03:46:48;;;;;;;23.13;15.25;;;;;;;3.11;75.36;99160.56;6198795;23;20003;-92
2023/12/12 03:49:14;;;;;;;27.45;16.30;;;;;;;3.16;75.35;99172.16;6198150;23;20030;-92
2023/12/12 03:51:40;;;;;;;26.00;16.92;;;;;;;3.25;75.25;99177.97;6175453;23;20028;-92
2023/12/12 03:54:05;;;;;;;26.88;16.17;;;;;;;3.13;75.61;99171.78;6202831;23;19996;-92
2023/12/12 03:56:32;;;;;;;24.75;15.57;;;;;;;3.25;75.56;99188.63;6202649;23;20458;-92
2023/12/12 03:59:01;;;;;;;25.65;15.05;;;;;;;2.99;75.39;99149.88;6178290;23;20363;-93
2023/12/12 04:01:26;;;;;;;26.25;15.93;;;;;;;3.17;75.55;99181.75;6203342;23;20000;-92
2023/12/12 04:03:55;;;;;;;26.55;16.35;;;;;;;3.17;75.03;99179.09;6228104;23;20004;-93
2023/12/12 04:06:22;;;;;;;29.88;17.25;;;;;;;2.94;76.21;99155.84;6179471;23;20027;-92
2023/12/12 04:08:47;;;;;;;31.48;18.75;;;;;;;3.01;76.41;99161.13;6200689;23;20351;-92
2023/12/12 04:11:13;;;;;;;29.50;17.13;;;;;;;3.01;75.78;99153.94;6202803;23;20000;-92
2023/12/12 04:13:39;;;;;;;26.85;17.67;;;;;;;3.25;75.56;99175.31;6202224;23;20020;-94
2023/12/12 04:16:05;;;;;;;32.35;17.60;;;;;;;3.13;74.60;99132.69;6203775;23;20008;-92
2023/12/12 04:18:30;;;;;;;26.58;17.42;;;;;;;3.48;74.96;99185.22;6230612;23;19997;-91
2023/12/12 04:20:56;;;;;;;24.77;15.43;;;;;;;3.35;74.96;99158.81;6205193;23;20029;-93
2023/12/12 04:23:22;;;;;;;21.85;14.05;;;;;;;3.48;74.71;99171.91;6179989;23;20008;-91
2023/12/12 04:25:49;;;;;;;24.42;14.57;;;;;;;3.48;74.33;99161.28;6182124;23;20035;-92
2023/12/12 04:28:16;;;;;;;26.60;15.68;;;;;;;3.57;74.06;99164.41;6204570;23;19999;-92
2023/12/12 04:30:42;;;;;;;25.70;14.68;;;;;;;3.56;74.06;99163.59;6180557;23;20011;-93
2023/12/12 04:33:08;;;;;;;25.75;14.95;;;;;;;3.57;74.38;99162.59;6205410;23;20000;-92
2023/12/12 04:35:34;;;;;;;22.48;14.60;;;;;;;3.46;74.50;99142.06;6207782;23;20000;-92
2023/12/12 04:38:03;;;;;;;26.40;14.95;;;;;;;3.57;74.57;99165.25;6205917;23;20078;-93
2023/12/12 04:40:29;;;;;;;27.20;15.85;;;;;;;3.52;74.52;99153.66;6204542;23;20000;-92
2023/12/12 04:42:55;;;;;;;28.17;15.48;;;;;;;3.53;74.14;99145.44;6205727;23;20000;-92
2023/12/12 04:45:53;;;;;;;28.23;16.42;;;;;;;3.60;74.67;99154.13;6185314;23;20025;-95
2023/12/12 04:48:26;;;;;;;27.20;15.45;;;;;;;3.63;74.34;99169.66;6185889;23;20072;-95
2023/12/12 04:50:55;;;;;;;30.20;18.27;;;;;;;3.62;73.83;99173.34;6218459;22;20024;-95
2023/12/12 04:53:52;;;;;;;34.03;18.45;;;;;;;3.71;74.41;99189.00;6248452;22;20476;-96
2023/12/12 05:03:25;;;;;;;27.95;16.75;;;;;;;3.27;75.62;99149.28;6181514;23;20012;-95
2023/12/12 05:09:26;;;;;;;32.00;18.85;;;;;;;3.44;75.51;99171.59;6116218;23;20017;-91
2023/12/12 05:11:52;;;;;;;29.50;17.25;;;;;;;3.44;75.13;99162.75;6240221;22;20007;-91
2023/12/12 05:14:18;;;;;;;34.17;19.42;;;;;;;3.54;75.46;99191.50;6203289;22;20050;-91
2023/12/12 05:16:44;;;;;;;31.40;18.48;;;;;;;3.48;74.99;99185.22;6202603;22;20334;-91
2023/12/12 05:19:12;;;;;;;27.70;17.95;;;;;;;3.20;75.40;99161.88;6202100;22;20008;-91
2023/12/12 05:21:39;;;;;;;27.67;17.52;;;;;;;3.31;75.73;99187.72;6228275;22;20436;-91
2023/12/12 05:24:06;;;;;;;28.05;19.08;;;;;;;3.31;75.48;99197.56;6205646;22;19999;-92
2023/12/12 05:26:31;;;;;;;26.98;15.80;;;;;;;3.27;75.14;99186.53;6229180;22;20010;-92
2023/12/12 05:28:58;;;;;;;24.27;14.43;;;;;;;3.36;75.74;99203.84;6229231;22;19979;-91
2023/12/12 05:31:27;;;;;;;24.50;15.40;;;;;;;3.37;76.10;99210.78;6201873;22;20026;-92
2023/12/12 05:33:58;;;;;;;29.73;17.13;;;;;;;3.31;75.64;99193.03;6204001;22;20003;-92
2023/12/12 05:36:24;;;;;;;30.10;19.00;;;;;;;3.26;75.60;99176.94;6204337;22;20007;-94
2023/12/12 05:38:51;;;;;;;33.53;19.42;;;;;;;3.19;75.85;99177.00;6203674;22;20507;-92
2023/12/12 05:41:19;;;;;;;26.95;16.75;;;;;;;3.28;75.91;99179.38;6203083;22;20014;-92
2023/12/12 05:43:45;;;;;;;33.60;19.92;;;;;;;3.40;75.09;99182.88;6227831;22;20338;-93
2023/12/12 05:46:11;;;;;;;30.05;18.30;;;;;;;3.34;75.43;99170.47;6201929;22;20031;-94
2023/12/12 05:48:37;;;;;;;36.55;24.48;;;;;;;3.60;75.66;99209.22;6202191;22;20096;-92
2023/12/12 05:51:05;;;;;;;67.50;46.22;;;;;;;3.59;75.70;99210.25;6209043;22;20022;-94
2023/12/12 05:53:31;;;;;;;34.08;21.02;;;;;;;3.32;75.56;99178.72;6204291;22;20019;-93
2023/12/12 05:55:56;;;;;;;38.63;20.73;;;;;;;3.36;75.41;99192.34;6203344;22;20008;-93
2023/12/12 05:58:29;;;;;;;28.80;18.65;;;;;;;3.47;75.76;99207.56;6228641;22;20010;-94
2023/12/12 06:00:55;;;;;;;30.08;19.50;;;;;;;3.38;75.52;99192.94;6204078;22;20346;-91
2023/12/12 06:03:21;;;;;;;29.45;18.83;;;;;;;3.54;74.89;99202.94;6229645;22;20007;-91
2023/12/12 06:05:46;;;;;;;30.35;18.50;;;;;;;3.51;75.49;99203.41;6202965;22;20096;-92
2023/12/12 06:08:12;;;;;;;27.60;18.05;;;;;;;3.47;75.41;99186.28;6228665;22;19999;-92
2023/12/12 06:10:57;;;;;;;27.30;17.30;;;;;;;3.80;74.80;99223.06;6229620;22;20085;-94
2023/12/12 06:13:35;;;;;;;26.20;16.42;;;;;;;3.62;75.15;99199.97;6204674;22;20087;-94
2023/12/12 06:16:03;;;;;;;30.73;17.83;;;;;;;3.78;75.48;99217.16;6228178;22;20015;-89
2023/12/12 06:18:29;;;;;;;31.05;19.10;;;;;;;3.61;75.77;99194.88;6229265;22;20434;-93
2023/12/12 06:21:05;;;;;;;27.98;17.65;;;;;;;3.61;75.13;99189.53;6204223;22;20074;-95
2023/12/12 06:23:39;;;;;;;31.63;18.67;;;;;;;3.81;73.93;99207.91;6231530;22;20015;-94
2023/12/12 06:26:05;;;;;;;41.20;22.67;;;;;;;3.83;73.92;99195.97;6206873;22;20043;-91
2023/12/12 06:28:31;;;;;;;51.05;27.30;;;;;;;3.98;73.45;99208.84;6229136;22;20003;-94
2023/12/12 06:30:57;;;;;;;41.55;23.73;;;;;;;4.15;73.79;99232.16;6231694;22;20075;-96
2023/12/12 06:33:27;;;;;;;121.20;67.18;;;;;;;4.14;74.05;99220.69;6205215;22;20095;-91
2023/12/12 06:36:21;;;;;;;233.65;116.10;;;;;;;4.37;73.04;99232.41;6234703;22;19988;-95
2023/12/12 06:38:50;;;;;;;41.67;24.98;;;;;;;4.01;73.65;99205.75;6223393;22;20000;-93
2023/12/12 06:42:33;;;;;;;42.00;22.33;;;;;;;4.28;73.05;99233.81;6211430;23;20065;-95
2023/12/12 06:45:13;;;;;;;41.65;22.95;;;;;;;4.24;72.75;99218.28;6217927;23;20072;-95
2023/12/12 06:48:15;;;;;;;45.05;25.50;;;;;;;4.52;73.27;99245.28;6145740;23;20008;-95
2023/12/12 06:50:41;;;;;;;;;;;;;;;4.60;72.06;99247.59;6195092;23;20075;-94
2023/12/12 06:53:10;;;;;;;49.58;27.42;;;;;;;4.62;71.62;99243.66;6201185;23;19912;-95
2023/12/12 06:55:37;;;;;;;37.85;24.15;;;;;;;4.73;71.59;99236.72;6150230;23;20016;-94
2023/12/12 06:58:06;;;;;;;36.25;24.77;;;;;;;4.81;71.40;99233.66;6172541;23;20001;-90
2023/12/12 07:00:31;;;;;;;36.63;21.95;;;;;;;4.78;71.51;99254.69;6193127;23;20004;-89
2023/12/12 07:02:57;;;;;;;36.17;21.38;;;;;;;4.91;72.02;99281.09;6143566;23;20087;-93
2023/12/12 07:05:29;;;;;;;29.45;20.13;;;;;;;4.78;71.94;99250.16;6170422;23;20364;-94
2023/12/12 07:07:55;;;;;;;34.95;21.55;;;;;;;4.98;71.21;99265.78;6173639;23;20088;-91
2023/12/12 07:10:23;;;;;;;34.40;22.90;;;;;;;4.88;71.74;99265.56;6170720;23;20004;-94
2023/12/12 07:12:48;;;;;;;35.17;23.35;;;;;;;4.99;71.99;99266.59;6171011;23;20075;-94
2023/12/12 07:15:17;;;;;;;39.15;23.58;;;;;;;5.00;71.13;99257.53;6172695;23;20546;-92
2023/12/12 07:18:12;;;;;;;36.63;23.52;;;;;;;5.18;72.26;99273.41;6200386;23;20031;-92
2023/12/12 07:20:52;;;;;;;38.53;25.80;;;;;;;5.25;71.53;99290.09;6205554;23;20000;-94
2023/12/12 07:23:18;;;;;;;45.25;26.08;;;;;;;5.11;71.17;99258.56;6177483;23;19996;-92
2023/12/12 07:25:47;;;;;;;40.03;24.63;;;;;;;5.45;70.95;99291.56;6222423;23;20083;-95
2023/12/12 07:28:15;;;;;;;37.05;22.73;;;;;;;5.40;70.13;99267.44;6177367;23;20498;-93
2023/12/12 07:30:44;;;;;;;33.00;23.02;;;;;;;5.31;70.23;99280.31;6200988;23;20016;-94
2023/12/12 07:33:33;;;;;;;36.17;21.90;;;;;;;5.30;70.14;99257.34;6183079;23;19984;-95
2023/12/12 07:36:10;;;;;;;36.25;22.60;;;;;;;5.37;69.74;99270.56;6203038;22;19996;-95
2023/12/12 07:45:46;;;;;;;31.20;22.25;;;;;;;5.24;70.17;99266.31;6192085;22;20004;-96
2023/12/12 07:51:30;;;;;;;33.60;21.67;;;;;;;5.07;71.00;99266.22;6241957;22;20011;-96
2023/12/12 07:54:12;;;;;;;;;;;;;;;5.29;70.97;99301.09;6141363;23;20024;-96
2023/12/12 07:59:54;;;;;;;38.17;23.17;;;;;;;4.94;71.83;99274.47;6152793;23;19993;-96
2023/12/12 08:05:16;;;;;;;36.80;23.02;;;;;;;5.46;71.00;99302.00;6242010;22;20035;-94
2023/12/12 08:08:06;;;;;;;;;;;;;;;;;;;;;
2023/12/12 08:14:07;;;;;;;42.75;25.63;;;;;;;5.00;73.03;99263.69;6188270;22;20035;-95
2023/12/12 08:16:49;;;;;;;;;;;;;;;;;;;;;
2023/12/12 08:19:40;;;;;;;43.58;25.80;;;;;;;5.29;72.22;99255.72;6060215;23;20001;-96
2023/12/12 08:22:06;;;;;;;55.28;30.80;;;;;;;5.56;71.57;99261.34;6154502;23;20012;-94
2023/12/12 08:24:40;;;;;;;48.50;26.67;;;;;;;5.57;71.46;99252.28;6112011;22;19997;-96
2023/12/12 08:30:43;;;;;;;453.00;254.63;;;;;;;6.18;69.15;99267.78;6206878;22;20044;-96
2023/12/12 08:33:26;;;;;;;52.83;31.73;;;;;;;6.38;67.90;99241.38;6170459;23;20001;-96
2023/12/12 08:36:02;;;;;;;39.63;25.55;;;;;;;6.55;66.78;99251.25;6117145;23;20009;-95
2023/12/12 08:38:50;;;;;;;37.67;21.73;;;;;;;6.59;66.27;99241.69;6118853;23;20001;-95
2023/12/12 08:41:14;;;;;;;29.50;19.52;;;;;;;6.87;65.65;99264.84;6124245;23;19998;-94
2023/12/12 08:43:55;;;;;;;32.08;20.35;;;;;;;6.77;66.13;99249.44;6115678;23;20032;-95
2023/12/12 08:46:34;;;;;;;35.92;20.80;;;;;;;6.89;65.47;99252.03;6142640;23;20001;-96
2023/12/12 08:49:37;;;;;;;32.20;20.20;;;;;;;7.00;65.08;99248.41;6151131;23;20073;-96
2023/12/12 08:52:45;;;;;;;31.92;20.88;;;;;;;6.98;65.16;99247.06;6117124;23;20006;-95
2023/12/12 09:02:13;;;;;;;37.08;20.92;;;;;;;7.33;64.17;99235.97;5998848;23;20015;-94
2023/12/12 09:04:51;;;;;;;33.38;20.73;;;;;;;7.45;63.98;99243.84;6007165;23;20008;-91
2023/12/12 09:14:04;;;;;;;43.08;22.00;;;;;;;7.73;63.39;99242.81;6030962;23;20042;-94
2023/12/12 09:19:49;;;;;;;36.10;22.02;;;;;;;7.97;63.15;99237.13;5962470;23;20009;-94
2023/12/12 09:40:18;;;;;;;31.52;17.83;;;;;;;8.62;62.04;99225.34;6195801;22;20029;-94
2023/12/12 09:43:24;;;;;;;30.45;17.33;;;;;;;8.99;61.07;99247.84;6148175;23;20017;-95
2023/12/12 09:45:50;;;;;;;23.08;14.50;;;;;;;8.90;59.82;99207.22;6181065;23;19985;-96
2023/12/12 09:48:16;;;;;;;19.55;14.30;;;;;;;9.06;59.71;99214.28;6144488;23;20001;-95
2023/12/12 09:50:58;;;;;;;22.60;13.93;;;;;;;9.13;58.52;99210.53;6116578;23;19997;-94
2023/12/12 09:53:25;;;;;;;21.48;13.20;;;;;;;9.08;58.92;99190.66;6149302;23;20440;-94
2023/12/12 09:55:57;;;;;;;58.53;29.85;;;;;;;9.12;58.93;99198.19;6117953;23;20032;-95
2023/12/12 09:58:23;;;;;;;53.30;27.45;;;;;;;9.27;59.33;99220.53;6122494;23;20007;-95
2023/12/12 10:00:53;;;;;;;62.20;31.30;;;;;;;9.33;58.88;99202.56;6142748;23;20005;-94
2023/12/12 10:03:19;;;;;;;40.17;22.17;;;;;;;9.50;58.84;99219.28;6118486;23;20075;-94
2023/12/12 10:05:55;;;;;;;39.78;22.30;;;;;;;9.35;59.06;99205.78;6142043;23;20078;-93
2023/12/12 10:08:27;;;;;;;37.38;19.80;;;;;;;9.59;58.39;99211.50;6144432;23;20055;-92
2023/12/12 10:10:59;;;;;;;37.22;21.52;;;;;;;9.70;58.21;99226.56;6141705;23;20040;-95
2023/12/12 10:13:25;;;;;;;47.70;24.83;;;;;;;9.61;57.90;99208.56;6144095;23;20040;-92
2023/12/12 10:16:04;;;;;;;39.08;20.73;;;;;;;9.48;58.97;99199.09;6141914;23;20005;-91
2023/12/12 10:18:51;;;;;;;33.67;19.05;;;;;;;9.72;58.54;99207.50;6148772;23;20000;-91
2023/12/12 10:21:31;;;;;;;28.70;18.35;;;;;;;9.84;58.48;99223.38;6146959;23;20016;-92
2023/12/12 10:24:14;;;;;;;29.50;18.30;;;;;;;9.70;57.69;99204.25;6130622;23;20061;-91
2023/12/12 10:26:40;;;;;;;30.08;18.45;;;;;;;9.76;57.94;99213.16;6146011;23;19997;-93
2023/12/12 10:29:06;;;;;;;27.95;17.15;;;;;;;9.67;57.60;99207.47;6117473;23;20008;-94
2023/12/12 10:31:34;;;;;;;25.80;16.40;;;;;;;9.62;57.88;99199.41;6141577;23;20104;-94
2023/12/12 10:34:03;;;;;;;30.25;16.88;;;;;;;9.75;58.26;99223.06;6116370;23;20001;-95
2023/12/12 10:36:30;;;;;;;26.55;16.42;;;;;;;9.67;57.74;99202.09;6138568;23;20001;-90
2023/12/12 10:39:10;;;;;;;29.42;15.68;;;;;;;9.79;57.80;99216.09;6176222;23;20020;-92
2023/12/12 10:41:36;;;;;;;26.85;17.15;;;;;;;9.93;58.04;99226.34;6148445;23;20080;-93
2023/12/12 10:44:08;;;;;;;24.23;14.10;;;;;;;9.88;58.43;99209.13;6169543;23;20023;-93
2023/12/12 10:46:50;;;;;;;;;;;;;;;;;;;;;
2023/12/12 10:49:43;;;;;;;28.20;14.65;;;;;;;9.91;57.34;99188.94;6176488;23;20039;-90
2023/12/12 10:54:59;;;;;;;28.33;17.20;;;;;;;10.24;57.41;99233.34;6158632;23;20058;-94
2023/12/12 10:57:43;;;;;;;;;;;;;;;;;;;;;
2023/12/12 11:00:30;;;;;;;28.00;15.98;;;;;;;10.10;57.60;99206.16;6176537;23;20031;-90
2023/12/12 11:02:59;;;;;;;29.08;15.32;;;;;;;10.29;57.72;99224.44;6159318;23;20005;-92
2023/12/12 11:05:45;;;;;;;41.30;18.83;;;;;;;10.24;57.43;99203.72;6149751;23;19997;-93
2023/12/12 11:08:11;;;;;;;36.65;19.42;;;;;;;10.26;57.35;99195.41;6149898;23;20203;-93
2023/12/12 11:10:42;;;;;;;34.42;20.02;;;;;;;10.36;57.30;99194.63;6149401;23;20005;-94
2023/12/12 11:13:21;;;;;;;81.00;45.30;;;;;;;10.55;57.50;99200.25;6194857;23;20031;-94
2023/12/12 11:15:47;;;;;;;52.05;26.17;;;;;;;10.50;57.33;99188.41;6148651;23;20417;-93
2023/12/12 11:18:24;;;;;;;84.40;45.75;;;;;;;10.67;57.27;99196.16;6169508;23;20068;-94
2023/12/12 11:20:50;;;;;;;45.08;24.67;;;;;;;10.75;57.48;99196.66;6170938;23;20005;-93
2023/12/12 11:23:54;;;;;;;36.33;21.77;;;;;;;11.01;57.29;99227.03;6146542;23;20020;-93
2023/12/12 11:27:13;;;;;;;31.45;20.10;;;;;;;11.05;56.63;99226.22;6102792;23;20095;-94
2023/12/12 11:29:47;;;;;;;36.22;19.48;;;;;;;10.90;56.95;99207.41;6052886;23;19998;-94
2023/12/12 11:32:24;;;;;;;39.42;21.23;;;;;;;10.88;56.96;99207.69;6056993;23;20013;-94
2023/12/12 11:34:52;;;;;;;45.50;22.42;;;;;;;10.82;57.40;99203.38;6074393;23;20175;-95
2023/12/12 11:37:43;;;;;;;37.95;23.98;;;;;;;10.88;57.34;99186.13;6099489;23;20081;-95
2023/12/12 11:40:13;;;;;;;45.10;25.02;;;;;;;11.11;57.17;99213.53;6089317;23;20029;-96
2023/12/12 11:42:40;;;;;;;40.17;22.95;;;;;;;11.01;57.22;99183.94;6141171;23;20013;-94
2023/12/12 11:45:14;;;;;;;47.15;27.50;;;;;;;11.14;56.64;99196.78;6144649;23;20363;-94
2023/12/12 11:47:43;;;;;;;48.20;24.70;;;;;;;11.25;56.58;99192.19;6170900;23;20017;-95
2023/12/12 11:50:15;;;;;;;58.17;28.05;;;;;;;11.42;56.75;99210.69;6124183;23;20004;-96
2023/12/12 11:52:41;;;;;;;60.58;30.25;;;;;;;11.49;56.59;99211.19;6195831;23;20009;-95
2023/12/12 11:55:15;;;;;;;47.67;24.60;;;;;;;11.37;56.41;99195.38;6194051;23;20008;-94
2023/12/12 11:57:41;;;;;;;51.88;26.23;;;;;;;11.32;56.71;99181.91;6149480;23;20018;-96
2023/12/12 12:00:08;;;;;;;50.55;25.50;;;;;;;11.30;56.63;99176.78;6145230;23;20453;-95
2023/12/12 12:02:43;;;;;;;70.18;27.73;;;;;;;11.30;57.28;99178.66;6150724;23;20001;-95
2023/12/12 12:05:59;;;;;;;57.80;27.40;;;;;;;11.25;57.72;99168.72;6156712;23;20079;-95
2023/12/12 12:09:05;;;;;;;69.60;28.23;;;;;;;11.21;57.95;99175.75;6171868;23;20001;-96
2023/12/12 12:11:47;;;;;;;59.22;27.70;;;;;;;11.07;58.73;99194.41;6153520;23;20005;-96
2023/12/12 12:14:17;;;;;;;217.32;111.53;;;;;;;11.02;59.13;99197.13;6182044;23;20100;-96
2023/12/12 12:16:45;;;;;;;100.85;55.25;;;;;;;11.10;59.23;99198.44;6128721;23;20204;-95
2023/12/12 12:19:57;;;;;;;71.78;36.15;;;;;;;11.17;59.44;99211.63;6156983;23;19997;-95
2023/12/12 12:35:51;;;;;;;;;;;;;;;11.26;58.76;99193.78;6024519;23;19946;-95
2023/12/12 12:38:26;;;;;;;41.70;23.90;;;;;;;11.10;59.35;99182.25;6082842;23;20360;-96
2023/12/12 12:41:23;;;;;;;52.95;26.08;;;;;;;10.94;59.16;99162.69;6141231;23;20011;-95
2023/12/12 12:44:13;;;;;;;59.88;28.30;;;;;;;10.69;59.69;99150.13;6175019;23;20000;-96
2023/12/12 12:47:12;;;;;;;58.17;29.75;;;;;;;10.60;60.01;99149.06;6204560;23;19996;-96
2023/12/12 12:49:38;;;;;;;68.55;33.42;;;;;;;10.67;60.14;99142.31;6115071;23;20001;-95
2023/12/12 12:52:12;;;;;;;54.50;28.65;;;;;;;10.51;60.75;99146.94;6157220;23;19996;-96
2023/12/12 12:54:41;;;;;;;65.28;30.52;;;;;;;10.46;60.83;99148.84;6214585;23;19987;-96
2023/12/12 12:57:26;;;;;;;62.45;29.67;;;;;;;10.58;61.26;99167.38;6183850;23;20076;-96
2023/12/12 13:00:07;;;;;;;53.55;28.30;;;;;;;10.59;61.23;99174.38;6189303;23;20008;-96
2023/12/12 13:02:57;;;;;;;45.83;27.08;;;;;;;10.63;61.23;99199.69;6160916;22;20031;-94
2023/12/12 13:05:25;;;;;;;49.17;26.45;;;;;;;10.47;60.81;99171.97;6181686;23;20082;-92
2023/12/12 13:08:55;;;;;;;43.10;24.92;;;;;;;10.38;60.82;99165.56;6175466;23;20079;-93
2023/12/12 13:11:50;;;;;;;33.85;20.02;;;;;;;10.53;59.99;99195.13;6099669;23;20326;-93
2023/12/12 13:14:18;;;;;;;38.85;20.17;;;;;;;10.63;60.24;99210.44;6202322;23;20058;-93